createdAt,value
2022-09-28T00:01:18.900Z,12.39
2022-09-28T00:03:49.067Z,12.42
2022-09-28T00:06:19.814Z,12.41
2022-09-28T00:08:50.221Z,12.42
2022-09-28T00:11:20.792Z,12.44
2022-09-28T00:13:51.781Z,12.44
2022-09-28T00:16:22.349Z,12.42
2022-09-28T00:18:53.091Z,12.42
2022-09-28T00:21:23.515Z,12.48
2022-09-28T00:24:11.510Z,12.46
2022-09-28T00:26:52.383Z,12.42
2022-09-28T00:29:29.268Z,12.42
2022-09-28T00:32:03.098Z,12.42
2022-09-28T00:34:40.743Z,12.48
2022-09-28T00:37:09.470Z,12.42
2022-09-28T00:39:38.533Z,12.42
2022-09-28T00:42:13.596Z,12.40
2022-09-28T00:44:48.188Z,12.42
2022-09-28T00:47:38.121Z,12.39
2022-09-28T00:50:05.743Z,12.31
2022-09-28T00:52:40.821Z,12.33
2022-09-28T00:55:16.632Z,12.31
2022-09-28T00:57:49.451Z,12.37
2022-09-28T01:00:17.640Z,12.34
2022-09-28T01:02:46.093Z,12.28
2022-09-28T01:05:15.071Z,12.21
2022-09-28T01:07:46.560Z,12.19
2022-09-28T01:10:15.631Z,12.22
2022-09-28T01:12:43.751Z,12.23
2022-09-28T01:15:11.707Z,12.22
2022-09-28T01:17:55.962Z,12.20
2022-09-28T01:20:58.561Z,12.14
2022-09-28T01:23:50.530Z,12.16
2022-09-28T01:26:43.595Z,12.19
2022-09-28T01:29:34.089Z,12.22
2022-09-28T01:32:46.588Z,12.22
2022-09-28T01:35:20.851Z,12.24
2022-09-28T01:38:05.862Z,12.20
2022-09-28T01:40:35.225Z,12.23
2022-09-28T01:43:10.955Z,12.23
2022-09-28T01:45:42.557Z,12.24
2022-09-28T01:48:13.296Z,12.23
2022-09-28T01:50:44.179Z,12.20
2022-09-28T01:53:19.316Z,12.16
2022-09-28T01:56:02.167Z,12.22
2022-09-28T01:58:33.142Z,12.27
2022-09-28T02:01:17.041Z,12.33
2022-09-28T02:03:51.339Z,12.33
2022-09-28T02:06:26.251Z,12.27
2022-09-28T02:08:59.419Z,12.22
2022-09-28T02:11:28.212Z,12.14
2022-09-28T02:14:04.386Z,12.12
2022-09-28T02:16:32.161Z,12.15
2022-09-28T02:19:00.346Z,12.10
2022-09-28T02:21:43.076Z,12.15
2022-09-28T02:24:21.261Z,12.17
2022-09-28T02:26:50.819Z,12.20
2022-09-28T02:29:18.792Z,12.18
2022-09-28T02:31:46.724Z,12.10
2022-09-28T02:34:14.365Z,12.11
2022-09-28T02:36:42.244Z,12.12
2022-09-28T02:39:19.712Z,12.12
2022-09-28T02:42:01.639Z,12.07
2022-09-28T02:44:54.551Z,11.99
2022-09-28T02:47:31.271Z,11.98
2022-09-28T02:50:18.140Z,11.91
2022-09-28T02:52:55.877Z,11.94
2022-09-28T02:56:04.905Z,11.98
2022-09-28T02:58:50.925Z,12.01
2022-09-28T03:01:18.688Z,11.88
2022-09-28T03:03:53.223Z,11.86
2022-09-28T03:06:59.691Z,11.86
2022-09-28T03:09:53.370Z,11.86
2022-09-28T03:12:24.475Z,11.90
2022-09-28T03:15:10.212Z,11.83
2022-09-28T03:17:38.440Z,11.77
2022-09-28T03:20:06.728Z,11.80
2022-09-28T03:22:34.449Z,11.73
2022-09-28T03:25:02.190Z,11.73
2022-09-28T03:27:29.675Z,11.79
2022-09-28T03:29:57.174Z,11.87
2022-09-28T03:32:25.281Z,11.85
2022-09-28T03:34:52.681Z,11.87
2022-09-28T03:37:20.384Z,11.85
2022-09-28T03:39:48.259Z,11.85
2022-09-28T03:42:15.735Z,11.89
2022-09-28T03:44:43.868Z,11.86
2022-09-28T03:47:12.147Z,11.85
2022-09-28T03:49:39.775Z,11.80
2022-09-28T03:52:10.060Z,11.75
2022-09-28T03:54:38.651Z,11.72
2022-09-28T03:57:06.779Z,11.69
2022-09-28T03:59:37.468Z,11.63
2022-09-28T04:02:05.628Z,11.66
2022-09-28T04:04:33.451Z,11.62
2022-09-28T04:07:00.912Z,11.65
2022-09-28T04:09:28.399Z,11.64
2022-09-28T04:12:03.843Z,11.62
2022-09-28T04:14:32.865Z,11.64
2022-09-28T04:17:00.604Z,11.59
2022-09-28T04:19:28.228Z,11.60
2022-09-28T04:21:56.096Z,11.73
2022-09-28T04:24:23.941Z,11.72
2022-09-28T04:26:51.892Z,11.70
2022-09-28T04:29:19.996Z,11.69
2022-09-28T04:31:50.602Z,11.75
2022-09-28T04:34:20.775Z,11.73
2022-09-28T04:36:50.144Z,11.75
2022-09-28T04:39:19.536Z,11.72
2022-09-28T04:41:48.492Z,11.66
2022-09-28T04:44:16.606Z,11.74
2022-09-28T04:46:45.865Z,11.71
2022-09-28T04:49:14.887Z,11.68
2022-09-28T04:51:43.182Z,11.74
2022-09-28T04:54:10.723Z,11.69
2022-09-28T04:56:38.122Z,11.75
2022-09-28T04:59:06.183Z,11.77
2022-09-28T05:01:34.338Z,11.80
2022-09-28T05:04:06.009Z,11.75
2022-09-28T05:06:33.728Z,11.74
2022-09-28T05:09:01.768Z,11.77
2022-09-28T05:11:29.218Z,11.74
2022-09-28T05:13:57.562Z,11.66
2022-09-28T05:16:26.327Z,11.68
2022-09-28T05:18:55.954Z,11.68
2022-09-28T05:21:25.487Z,11.69
2022-09-28T05:23:56.107Z,11.64
2022-09-28T05:26:24.368Z,11.67
2022-09-28T05:28:51.816Z,11.66
2022-09-28T05:31:21.886Z,11.67
2022-09-28T05:33:50.687Z,11.71
2022-09-28T05:36:18.125Z,11.75
2022-09-28T05:38:46.246Z,11.72
2022-09-28T05:41:14.348Z,11.74
2022-09-28T05:43:41.892Z,11.76
2022-09-28T05:46:09.391Z,11.79
2022-09-28T05:48:37.944Z,11.84
2022-09-28T05:51:05.492Z,11.91
2022-09-28T05:53:32.953Z,11.95
2022-09-28T05:56:00.938Z,11.96
2022-09-28T05:58:30.506Z,11.98
2022-09-28T06:00:58.765Z,11.99
2022-09-28T06:03:27.177Z,12.01
2022-09-28T06:05:54.849Z,12.08
2022-09-28T06:08:22.590Z,12.09
2022-09-28T06:10:51.346Z,12.02
2022-09-28T06:13:18.820Z,12.09
2022-09-28T06:15:46.449Z,12.16
2022-09-28T06:18:15.043Z,12.22
2022-09-28T06:20:43.662Z,12.22
2022-09-28T06:23:12.794Z,12.22
2022-09-28T06:25:40.893Z,12.22
2022-09-28T06:28:15.295Z,12.27
2022-09-28T06:30:44.093Z,12.33
2022-09-28T06:33:13.832Z,12.37
2022-09-28T06:35:42.316Z,12.39
2022-09-28T06:38:10.540Z,12.37
2022-09-28T06:40:38.281Z,12.43
2022-09-28T06:43:10.653Z,12.45
2022-09-28T06:45:43.677Z,12.56
2022-09-28T06:48:11.711Z,12.55
2022-09-28T06:50:42.625Z,12.58
2022-09-28T06:53:13.883Z,12.94
2022-09-28T06:55:43.549Z,13.52
2022-09-28T06:58:13.523Z,13.99
2022-09-28T07:00:41.753Z,14.43
2022-09-28T07:03:13.707Z,14.34
2022-09-28T07:05:48.282Z,14.61
2022-09-28T07:08:17.375Z,15.00
2022-09-28T07:10:48.832Z,15.23
2022-09-28T07:13:45.508Z,15.72
2022-09-28T07:16:05.494Z,16.03
2022-09-28T07:18:33.018Z,16.36
2022-09-28T07:21:02.810Z,16.44
2022-09-28T07:23:32.392Z,16.18
2022-09-28T07:26:08.082Z,16.46
2022-09-28T07:28:38.197Z,16.64
2022-09-28T07:31:06.932Z,16.72
2022-09-28T07:33:34.680Z,16.89
2022-09-28T07:36:06.581Z,16.94
2022-09-28T07:38:34.615Z,16.94
2022-09-28T07:41:16.928Z,17.14
2022-09-28T07:43:45.552Z,17.31
2022-09-28T07:46:13.256Z,17.32
2022-09-28T07:48:42.840Z,17.46
2022-09-28T07:51:10.759Z,17.51
2022-09-28T07:53:38.519Z,17.51
2022-09-28T07:56:09.009Z,17.14
2022-09-28T07:58:39.040Z,17.10
2022-09-28T08:01:15.583Z,17.00
2022-09-28T08:03:45.476Z,16.97
2022-09-28T08:06:17.101Z,16.85
2022-09-28T08:08:45.153Z,17.03
2022-09-28T08:11:16.689Z,17.22
2022-09-28T08:13:46.501Z,17.45
2022-09-28T08:16:14.651Z,17.79
2022-09-28T08:18:44.096Z,18.22
2022-09-28T08:21:30.720Z,17.80
2022-09-28T08:23:58.816Z,18.25
2022-09-28T08:26:26.535Z,18.51
2022-09-28T08:28:53.997Z,18.78
2022-09-28T08:31:22.772Z,19.09
2022-09-28T08:33:53.751Z,18.71
2022-09-28T08:36:27.656Z,17.88
2022-09-28T08:38:56.219Z,18.20
2022-09-28T08:41:51.551Z,18.10
2022-09-28T08:44:24.546Z,17.99
2022-09-28T08:47:30.176Z,18.27
2022-09-28T08:50:03.605Z,18.95
2022-09-28T08:52:38.396Z,19.25
2022-09-28T08:55:06.512Z,19.54
2022-09-28T08:57:53.060Z,19.58
2022-09-28T09:00:33.281Z,18.82
2022-09-28T09:03:11.972Z,19.37
2022-09-28T09:05:56.284Z,19.14
2022-09-28T09:08:37.325Z,19.60
2022-09-28T09:11:38.380Z,19.17
2022-09-28T09:14:27.767Z,19.22
2022-09-28T09:17:13.827Z,19.20
2022-09-28T09:20:03.543Z,18.62
2022-09-28T09:22:42.033Z,18.25
2022-09-28T09:25:18.388Z,18.18
2022-09-28T09:27:59.244Z,18.05
2022-09-28T09:30:34.952Z,17.98
2022-09-28T09:33:24.276Z,17.90
2022-09-28T09:36:16.820Z,18.29
2022-09-28T09:38:48.952Z,18.91
2022-09-28T09:41:47.149Z,19.30
2022-09-28T09:44:35.101Z,18.98
2022-09-28T09:47:09.762Z,19.03
2022-09-28T09:49:44.001Z,18.67
2022-09-28T09:52:29.394Z,18.35
2022-09-28T09:55:40.707Z,18.32
2022-09-28T09:58:12.228Z,18.71
2022-09-28T10:00:45.739Z,19.40
2022-09-28T10:03:31.384Z,19.86
2022-09-28T10:06:11.871Z,20.01
2022-09-28T10:09:12.554Z,19.59
2022-09-28T10:11:44.928Z,19.29
2022-09-28T10:14:21.493Z,18.92
2022-09-28T10:16:52.583Z,18.54
2022-09-28T10:19:30.723Z,18.69
2022-09-28T10:22:05.847Z,19.14
2022-09-28T10:24:45.294Z,18.85
2022-09-28T10:27:20.067Z,19.18
2022-09-28T10:30:13.926Z,18.70
2022-09-28T10:32:46.662Z,19.00
2022-09-28T10:35:22.784Z,18.96
2022-09-28T10:38:01.805Z,18.96
2022-09-28T10:40:48.546Z,18.89
2022-09-28T10:43:21.863Z,19.21
2022-09-28T10:46:01.856Z,18.88
2022-09-28T10:48:32.586Z,18.92
2022-09-28T10:51:04.756Z,18.82
2022-09-28T10:53:33.563Z,18.92
2022-09-28T10:56:22.793Z,18.99
2022-09-28T10:58:52.149Z,19.03
2022-09-28T11:01:26.157Z,18.75
2022-09-28T11:04:03.593Z,19.58
2022-09-28T11:06:36.622Z,19.71
2022-09-28T11:09:07.978Z,19.30
2022-09-28T11:11:43.101Z,19.31
2022-09-28T11:14:32.587Z,19.03
2022-09-28T11:17:28.158Z,18.96
2022-09-28T11:20:01.613Z,18.92
2022-09-28T11:22:41.770Z,18.85
2022-09-28T11:25:21.308Z,19.40
2022-09-28T11:27:52.069Z,19.68
2022-09-28T11:30:31.158Z,19.56
2022-09-28T11:33:07.219Z,19.73
2022-09-28T11:36:00.257Z,19.25
2022-09-28T11:38:41.057Z,19.26
2022-09-28T11:41:30.424Z,19.84
2022-09-28T11:44:04.200Z,19.21
2022-09-28T11:47:02.294Z,19.48
2022-09-28T11:49:49.362Z,19.50
2022-09-28T11:52:28.220Z,19.63
2022-09-28T11:55:13.480Z,19.83
2022-09-28T11:57:45.194Z,20.01
2022-09-28T12:00:20.784Z,19.72
2022-09-28T12:02:55.988Z,19.98
2022-09-28T12:05:30.403Z,19.87
2022-09-28T12:08:06.832Z,19.85
2022-09-28T12:10:48.685Z,19.93
2022-09-28T12:13:22.603Z,20.15
2022-09-28T12:21:56.565Z,19.89
2022-09-28T12:24:37.522Z,19.47
2022-09-28T12:27:11.601Z,19.43
2022-09-28T12:29:52.720Z,19.81
2022-09-28T12:32:38.614Z,19.69
2022-09-28T12:35:16.138Z,19.95
2022-09-28T12:37:56.914Z,20.47
2022-09-28T12:40:58.679Z,20.74
2022-09-28T12:43:48.201Z,20.47
2022-09-28T12:46:31.175Z,20.75
2022-09-28T12:52:39.351Z,20.31
2022-09-28T12:55:30.777Z,20.21
2022-09-28T12:58:06.759Z,20.41
2022-09-28T13:01:00.445Z,19.56
2022-09-28T13:03:46.535Z,20.01
2022-09-28T13:06:35.014Z,19.97
2022-09-28T13:09:17.324Z,19.96
2022-09-28T13:12:24.838Z,19.88
2022-09-28T13:15:29.440Z,19.90
2022-09-28T13:18:23.101Z,19.68
2022-09-28T13:20:53.387Z,19.44
2022-09-28T13:23:25.641Z,19.36
2022-09-28T13:26:26.311Z,19.58
2022-09-28T13:29:00.488Z,19.65
2022-09-28T13:31:34.953Z,19.66
2022-09-28T13:34:06.222Z,19.95
2022-09-28T13:36:36.915Z,20.25
2022-09-28T13:39:24.418Z,20.52
2022-09-28T13:41:54.599Z,20.69
2022-09-28T13:44:44.531Z,20.69
2022-09-28T13:47:50.640Z,20.60
2022-09-28T13:50:26.958Z,20.58
2022-09-28T13:52:57.250Z,20.58
2022-09-28T13:55:33.736Z,20.53
2022-09-28T13:58:06.528Z,20.29
2022-09-28T14:00:45.574Z,20.34
2022-09-28T14:03:20.680Z,19.72
2022-09-28T14:06:11.514Z,19.44
2022-09-28T14:09:15.917Z,19.27
2022-09-28T14:11:58.089Z,18.97
2022-09-28T14:14:47.276Z,18.82
2022-09-28T14:17:23.638Z,18.98
2022-09-28T14:20:04.613Z,18.95
2022-09-28T14:22:44.469Z,18.86
2022-09-28T14:25:45.323Z,18.46
2022-09-28T14:28:41.143Z,18.62
2022-09-28T14:31:17.342Z,18.69
2022-09-28T14:33:56.889Z,18.63
2022-09-28T14:37:07.688Z,18.64
2022-09-28T14:39:57.129Z,18.63
2022-09-28T14:42:25.749Z,18.51
2022-09-28T14:45:06.324Z,18.39
2022-09-28T14:47:43.283Z,18.34
2022-09-28T14:50:28.339Z,18.12
2022-09-28T14:53:04.363Z,17.93
2022-09-28T14:55:39.067Z,17.73
2022-09-28T14:58:17.343Z,17.74
2022-09-28T15:00:46.937Z,17.73
2022-09-28T15:03:15.415Z,17.58
2022-09-28T15:05:47.121Z,17.49
2022-09-28T15:08:19.135Z,17.45
2022-09-28T15:10:49.368Z,17.41
2022-09-28T15:13:27.777Z,17.33
2022-09-28T15:16:03.837Z,17.30
2022-09-28T15:18:58.574Z,17.27
2022-09-28T15:21:34.487Z,17.16
2022-09-28T15:24:02.279Z,17.17
2022-09-28T15:26:32.988Z,17.11
2022-09-28T15:29:04.088Z,17.11
2022-09-28T15:31:35.868Z,17.13
2022-09-28T15:34:22.198Z,17.10
2022-09-28T15:36:50.025Z,17.11
2022-09-28T15:39:48.216Z,17.09
2022-09-28T15:42:17.384Z,17.05
2022-09-28T15:45:13.801Z,17.06
2022-09-28T15:47:43.697Z,17.03
2022-09-28T15:50:22.134Z,16.99
2022-09-28T15:52:56.594Z,16.98
2022-09-28T15:55:42.096Z,16.95
2022-09-28T15:58:13.337Z,16.86
2022-09-28T16:00:41.582Z,16.79
2022-09-28T16:03:09.379Z,16.76
2022-09-28T16:05:46.737Z,16.64
2022-09-28T16:08:26.250Z,16.55
2022-09-28T16:11:10.960Z,16.54
2022-09-28T16:14:06.301Z,16.52
2022-09-28T16:16:41.165Z,16.57
2022-09-28T16:19:26.066Z,16.49
2022-09-28T16:21:56.465Z,16.43
2022-09-28T16:24:31.692Z,16.35
2022-09-28T16:27:27.621Z,16.34
2022-09-28T16:30:16.776Z,16.33
2022-09-28T16:32:57.790Z,16.32
2022-09-28T16:35:32.760Z,16.32
2022-09-28T16:38:05.638Z,16.37
2022-09-28T16:40:33.984Z,16.30
2022-09-28T16:43:05.721Z,16.26
2022-09-28T16:45:35.302Z,16.23
2022-09-28T16:48:03.094Z,16.27
2022-09-28T16:50:30.513Z,16.32
2022-09-28T16:53:21.552Z,16.30
2022-09-28T16:55:49.888Z,16.27
2022-09-28T16:58:18.625Z,16.19
2022-09-28T17:00:46.108Z,16.18
2022-09-28T17:03:19.002Z,16.19
2022-09-28T17:05:48.104Z,16.25
2022-09-28T17:08:18.860Z,16.30
2022-09-28T17:11:23.377Z,16.35
2022-09-28T17:13:50.006Z,16.38
2022-09-28T17:16:28.209Z,16.32
2022-09-28T17:19:24.167Z,16.25
2022-09-28T17:21:52.899Z,16.21
2022-09-28T17:24:20.950Z,16.22
2022-09-28T17:26:51.131Z,16.25
2022-09-28T17:29:19.344Z,16.21
2022-09-28T17:31:47.808Z,16.19
2022-09-28T17:34:16.362Z,16.15
2022-09-28T17:36:45.198Z,16.12
2022-09-28T17:39:15.362Z,16.08
2022-09-28T17:41:42.980Z,16.02
2022-09-28T17:44:10.864Z,16.06
2022-09-28T17:46:45.939Z,16.05
2022-09-28T17:49:13.572Z,16.02
2022-09-28T17:51:41.440Z,16.00
2022-09-28T17:54:08.887Z,15.97
2022-09-28T17:56:37.429Z,16.00
2022-09-28T17:59:12.712Z,16.01
2022-09-28T18:01:40.763Z,15.99
2022-09-28T18:04:19.146Z,15.96
2022-09-28T18:06:51.948Z,15.95
2022-09-28T18:09:25.215Z,15.93
2022-09-28T18:12:00.575Z,15.93
2022-09-28T18:14:28.663Z,15.93
2022-09-28T18:16:56.635Z,15.84
2022-09-28T18:19:27.457Z,15.85
2022-09-28T18:21:59.061Z,15.85
2022-09-28T18:24:26.879Z,15.76
2022-09-28T18:26:54.427Z,15.68
2022-09-28T18:29:22.259Z,15.62
2022-09-28T18:31:50.086Z,15.57
2022-09-28T18:34:17.890Z,15.48
2022-09-28T18:36:48.424Z,15.38
2022-09-28T18:39:15.978Z,15.27
2022-09-28T18:41:43.464Z,15.32
2022-09-28T18:44:11.251Z,15.24
2022-09-28T18:46:39.404Z,15.19
2022-09-28T18:49:07.222Z,15.14
2022-09-28T18:51:34.998Z,15.09
2022-09-28T18:54:07.204Z,14.92
2022-09-28T18:56:37.408Z,14.88
2022-09-28T18:59:12.177Z,14.82
2022-09-28T19:01:41.997Z,14.81
2022-09-28T19:04:11.134Z,14.78
2022-09-28T19:06:40.816Z,14.74
2022-09-28T19:09:09.430Z,14.74
2022-09-28T19:11:37.037Z,14.62
2022-09-28T19:14:04.508Z,14.66
2022-09-28T19:16:34.113Z,14.61
2022-09-28T19:19:02.818Z,14.61
2022-09-28T19:21:30.777Z,14.57
2022-09-28T19:24:03.413Z,14.60
2022-09-28T19:26:33.084Z,14.56
2022-09-28T19:29:02.162Z,14.47
2022-09-28T19:31:30.897Z,14.41
2022-09-28T19:33:58.810Z,14.36
2022-09-28T19:36:28.701Z,14.23
2022-09-28T19:39:02.223Z,14.09
2022-09-28T19:41:43.339Z,14.13
2022-09-28T19:44:15.447Z,14.19
2022-09-28T19:46:43.413Z,14.22
2022-09-28T19:49:14.026Z,14.22
2022-09-28T19:51:56.535Z,14.21
2022-09-28T19:54:36.343Z,14.22
2022-09-28T19:57:07.856Z,14.15
2022-09-28T19:59:37.176Z,14.19
2022-09-28T20:02:07.032Z,14.22
2022-09-28T20:04:34.981Z,14.15
2022-09-28T20:07:03.247Z,14.16
2022-09-28T20:09:31.917Z,14.23
2022-09-28T20:11:59.774Z,14.24
2022-09-28T20:14:32.897Z,14.22
2022-09-28T20:17:04.204Z,14.27
2022-09-28T20:19:31.623Z,14.31
2022-09-28T20:22:03.234Z,14.25
2022-09-28T20:24:32.051Z,14.20
2022-09-28T20:26:59.946Z,14.19
2022-09-28T20:29:33.806Z,14.17
2022-09-28T20:32:04.005Z,14.17
2022-09-28T20:34:34.046Z,14.20
2022-09-28T20:37:01.876Z,14.28
2022-09-28T20:39:29.618Z,14.23
2022-09-28T20:41:57.469Z,14.26
2022-09-28T20:44:25.184Z,14.23
2022-09-28T20:46:52.720Z,14.18
2022-09-28T20:49:20.349Z,14.13
2022-09-28T20:51:48.142Z,14.14
2022-09-28T20:54:15.612Z,14.14
2022-09-28T20:56:43.028Z,14.17
2022-09-28T20:59:12.082Z,14.19
2022-09-28T21:01:40.849Z,14.15
2022-09-28T21:04:09.941Z,14.05
2022-09-28T21:06:39.712Z,13.96
2022-09-28T21:09:08.834Z,14.04
2022-09-28T21:11:36.817Z,14.12
2022-09-28T21:14:06.587Z,14.09
2022-09-28T21:16:35.396Z,14.16
2022-09-28T21:19:03.776Z,14.10
2022-09-28T21:21:32.009Z,14.03
2022-09-28T21:23:59.578Z,14.01
2022-09-28T21:26:29.512Z,13.97
2022-09-28T21:28:59.961Z,13.92
2022-09-28T21:31:30.584Z,13.92
2022-09-28T21:33:58.847Z,13.94
2022-09-28T21:36:26.385Z,13.90
2022-09-28T21:38:56.105Z,13.92
2022-09-28T21:41:25.231Z,13.93
2022-09-28T21:43:52.689Z,13.81
2022-09-28T21:46:20.287Z,13.73
2022-09-28T21:48:54.247Z,13.63
2022-09-28T21:51:21.893Z,13.65
2022-09-28T21:53:49.716Z,13.47
2022-09-28T21:56:17.573Z,13.39
2022-09-28T21:58:45.007Z,13.37
2022-09-28T22:01:19.599Z,13.34
2022-09-28T22:03:50.585Z,13.35
2022-09-28T22:06:20.454Z,13.37
2022-09-28T22:08:49.372Z,13.27
2022-09-28T22:11:22.129Z,13.24
2022-09-28T22:13:52.802Z,13.26
2022-09-28T22:16:22.993Z,13.39
2022-09-28T22:18:50.995Z,13.50
2022-09-28T22:21:39.070Z,13.56
2022-09-28T22:24:07.690Z,13.59
2022-09-28T22:26:37.238Z,13.39
2022-09-28T22:29:07.451Z,13.30
2022-09-28T22:31:38.381Z,13.33
2022-09-28T22:34:07.288Z,13.40
2022-09-28T22:36:35.557Z,13.22
2022-09-28T22:39:03.123Z,13.22
2022-09-28T22:41:31.814Z,13.12
2022-09-28T22:43:59.840Z,13.13
2022-09-28T22:46:29.138Z,13.11
2022-09-28T22:48:58.792Z,13.17
2022-09-28T22:51:29.550Z,13.20
2022-09-28T22:53:58.007Z,13.27
2022-09-28T22:56:25.817Z,13.33
2022-09-28T22:58:53.372Z,13.31
2022-09-28T23:01:23.802Z,13.39
2022-09-28T23:03:52.754Z,13.41
2022-09-28T23:06:23.267Z,13.44
2022-09-28T23:08:51.828Z,13.47
2022-09-28T23:11:19.992Z,13.51
2022-09-28T23:13:51.630Z,13.63
2022-09-28T23:16:20.085Z,13.58
2022-09-28T23:18:49.321Z,13.58
2022-09-28T23:21:20.247Z,13.50
2022-09-28T23:23:55.741Z,13.52
2022-09-28T23:26:26.227Z,13.49
2022-09-28T23:28:54.672Z,13.39
2022-09-28T23:31:24.544Z,13.38
2022-09-28T23:33:56.385Z,13.42
2022-09-28T23:36:24.360Z,13.39
2022-09-28T23:38:51.790Z,13.39
2022-09-28T23:41:19.397Z,13.40
2022-09-28T23:43:47.245Z,13.35
2022-09-28T23:46:19.776Z,13.36
2022-09-28T23:48:49.618Z,13.41
2022-09-28T23:51:17.363Z,13.31
2022-09-28T23:53:45.358Z,13.26
2022-09-28T23:56:14.567Z,13.28
2022-09-28T23:58:42.885Z,13.26
